Time;durP1;ratioP1;P1;durP2;ratioP2;P2;SDS_P1;SDS_P2;PMS_P1;PMS_P2;Temp;Humidity;BMP_temperature;BMP_pressure;BME280_temperature;BME280_humidity;BME280_pressure;Samples;Min_cycle;Max_cycle;Signal;HPM_P1;HPM_P2
2021/12/18 00:01:53;;;;;;;;;;;;;;;0.87;93.19;97968.45;107762;1281;36019;-75
2021/12/18 00:04:21;;;;;;;15.00;8.30;;;;;;;0.85;93.19;97973.39;107783;1284;35933;-75
2021/12/18 00:06:50;;;;;;;14.90;7.70;;;;;;;0.85;93.11;97970.77;107789;1283;39225;-76
2021/12/18 00:09:18;;;;;;;10.50;6.10;;;;;;;0.85;93.34;97964.85;107766;1282;37492;-76
2021/12/18 00:11:48;;;;;;;15.60;6.80;;;;;;;0.83;93.10;97973.54;107768;1282;35297;-76
2021/12/18 00:14:17;;;;;;;16.10;7.70;;;;;;;0.82;93.12;97967.02;107867;1282;31575;-77
2021/12/18 00:16:45;;;;;;;14.00;7.90;;;;;;;0.84;93.19;97973.45;107804;1283;35890;-76
2021/12/18 00:19:14;;;;;;;13.50;7.50;;;;;;;0.84;93.14;97985.40;107903;1279;39725;-76
2021/12/18 00:21:43;;;;;;;15.50;7.50;;;;;;;0.84;93.30;97989.25;107819;1283;31941;-76
2021/12/18 00:24:12;;;;;;;12.30;6.30;;;;;;;0.85;93.18;98003.84;107768;1283;38220;-76
2021/12/18 00:26:41;;;;;;;14.20;6.20;;;;;;;0.85;93.09;98011.13;107754;1283;34679;-76
2021/12/18 00:29:09;;;;;;;8.60;5.40;;;;;;;0.86;93.04;98012.55;107814;1284;41006;-76
2021/12/18 00:31:38;;;;;;;11.40;7.10;;;;;;;0.86;93.10;98015.03;107789;1283;32381;-76
2021/12/18 00:34:06;;;;;;;11.50;6.80;;;;;;;0.84;93.30;98026.91;107781;1282;34953;-76
2021/12/18 00:36:35;;;;;;;9.00;4.80;;;;;;;0.85;93.07;98028.91;107680;1281;65803;-76
2021/12/18 00:39:04;;;;;;;10.60;5.40;;;;;;;0.84;93.07;98031.91;107694;1284;38625;-76
2021/12/18 00:41:48;;;;;;;12.00;6.30;;;;;;;0.85;93.00;98027.14;107752;1284;36328;-76
2021/12/18 00:44:17;;;;;;;9.70;5.10;;;;;;;0.83;93.07;98026.50;107810;1283;31485;-76
2021/12/18 00:46:46;;;;;;;11.10;5.50;;;;;;;0.82;93.01;98028.66;107896;1284;43936;-76
2021/12/18 00:49:19;;;;;;;10.70;5.50;;;;;;;0.81;92.94;98024.83;107826;1283;38605;-76
2021/12/18 00:51:48;;;;;;;13.30;6.10;;;;;;;0.80;92.93;98027.71;107794;1282;33545;-76
2021/12/18 00:54:16;;;;;;;9.50;5.20;;;;;;;0.78;93.17;98040.98;107881;1284;27052;-76
2021/12/18 00:56:45;;;;;;;15.00;7.40;;;;;;;0.77;93.02;98036.83;107925;1283;45296;-76
2021/12/18 00:59:14;;;;;;;12.00;5.70;;;;;;;0.75;93.40;98049.91;107846;1284;38407;-76
2021/12/18 01:01:46;;;;;;;12.40;6.50;;;;;;;0.76;93.35;98049.59;107847;1283;45081;-76
2021/12/18 01:04:15;;;;;;;11.80;6.10;;;;;;;0.77;93.21;98050.56;107808;1283;48151;-76
2021/12/18 01:06:44;;;;;;;13.90;6.20;;;;;;;0.77;93.33;98047.33;107862;1281;29270;-76
2021/12/18 01:09:14;;;;;;;8.20;4.80;;;;;;;0.75;93.23;98045.54;107819;1282;33171;-76
2021/12/18 01:11:44;;;;;;;10.00;4.80;;;;;;;0.74;93.08;98038.05;108069;1283;31346;-76
2021/12/18 01:14:43;;;;;;;;;;;;;;;0.74;93.32;98050.60;107846;1283;47245;-76
2021/12/18 01:22:57;;;;;;;10.00;5.60;;;;;;;0.73;93.25;98042.73;107430;1288;31200;-76
2021/12/18 01:25:25;;;;;;;12.00;5.50;;;;;;;0.69;93.14;98041.53;107645;1283;41754;-76
2021/12/18 01:27:54;;;;;;;10.90;5.70;;;;;;;0.69;93.20;98040.00;107743;1283;43119;-76
2021/12/18 01:30:22;;;;;;;11.40;5.40;;;;;;;0.70;93.32;98054.66;107764;1283;47836;-76
2021/12/18 01:32:51;;;;;;;10.10;4.90;;;;;;;0.72;93.41;98053.20;107747;1283;35018;-76
2021/12/18 01:35:20;;;;;;;10.10;5.40;;;;;;;0.73;93.37;98052.08;107779;1283;59789;-76
2021/12/18 01:37:50;;;;;;;10.80;5.80;;;;;;;0.71;93.34;98055.23;107854;1281;40935;-76
2021/12/18 01:40:21;;;;;;;11.20;6.00;;;;;;;0.68;93.45;98042.92;107751;1283;38772;-76
2021/12/18 01:45:48;;;;;;;11.70;5.70;;;;;;;0.62;93.50;98037.39;107783;1282;34448;-76
2021/12/18 01:51:19;;;;;;;11.70;6.30;;;;;;;0.61;93.77;98041.00;107763;1283;36468;-76
2021/12/18 01:53:50;;;;;;;12.10;5.10;;;;;;;0.63;93.66;98048.08;107753;1282;41737;-76
2021/12/18 01:56:20;;;;;;;9.70;5.10;;;;;;;0.65;93.55;98053.20;107870;1282;29514;-76
2021/12/18 01:58:49;;;;;;;10.30;4.90;;;;;;;0.63;93.47;98057.36;107738;1281;47388;-77
2021/12/18 02:01:18;;;;;;;8.70;4.30;;;;;;;0.61;93.23;98056.48;107817;1282;44133;-76
2021/12/18 02:03:47;;;;;;;8.70;3.70;;;;;;;0.58;93.02;98054.98;107808;1284;35411;-76
2021/12/18 02:06:16;;;;;;;10.60;4.90;;;;;;;0.57;92.67;98062.23;107930;1282;36046;-76
2021/12/18 02:08:45;;;;;;;6.40;3.70;;;;;;;0.57;92.83;98072.05;107826;1281;48905;-76
2021/12/18 02:11:26;;;;;;;7.90;3.50;;;;;;;0.56;92.63;98079.77;107814;1283;61853;-76
2021/12/18 02:14:23;;;;;;;8.40;4.20;;;;;;;0.57;92.72;98085.07;107767;1283;36470;-77
2021/12/18 02:19:57;;;;;;;8.50;4.40;;;;;;;0.58;92.73;98101.14;107727;1284;45007;-76
2021/12/18 02:22:28;;;;;;;8.80;4.50;;;;;;;0.57;92.97;98098.50;107712;1284;45516;-76
2021/12/18 02:24:56;;;;;;;7.60;4.50;;;;;;;0.55;92.88;98094.56;107812;1283;39423;-76
2021/12/18 02:27:25;;;;;;;7.90;4.20;;;;;;;0.53;92.99;98086.84;107773;1283;31890;-76
2021/12/18 02:29:53;;;;;;;6.60;3.50;;;;;;;0.53;92.85;98073.30;107818;1282;44882;-76
2021/12/18 02:32:22;;;;;;;11.70;5.20;;;;;;;0.52;93.01;98069.48;107833;1283;52706;-76
2021/12/18 02:34:58;;;;;;;7.10;3.70;;;;;;;0.49;93.02;98074.86;107709;1283;38634;-76
2021/12/18 02:37:29;;;;;;;10.00;5.20;;;;;;;0.48;92.91;98077.18;107693;1283;52955;-76
2021/12/18 02:42:53;;;;;;;8.10;3.90;;;;;;;0.46;93.24;98081.40;107659;1283;29749;-76
2021/12/18 02:45:22;;;;;;;9.00;4.10;;;;;;;0.46;92.99;98085.83;107745;1284;40225;-76
2021/12/18 02:47:53;;;;;;;8.70;4.70;;;;;;;0.46;92.97;98080.80;107695;1284;60327;-76
2021/12/18 02:50:22;;;;;;;9.30;4.60;;;;;;;0.46;93.12;98067.52;107792;1282;29059;-76
2021/12/18 02:52:50;;;;;;;10.80;4.50;;;;;;;0.45;93.30;98069.47;107724;1281;41663;-75
2021/12/18 02:55:19;;;;;;;10.40;5.30;;;;;;;0.43;93.32;98064.03;107770;1281;38888;-75
2021/12/18 02:57:47;;;;;;;9.80;5.50;;;;;;;0.45;93.45;98056.42;107705;1281;47845;-76
2021/12/18 03:00:17;;;;;;;12.20;5.80;;;;;;;0.47;93.82;98054.89;107800;1283;36186;-75
2021/12/18 03:02:45;;;;;;;8.90;5.80;;;;;;;0.47;93.59;98056.33;107826;1284;32170;-75
2021/12/18 03:05:21;;;;;;;10.10;4.70;;;;;;;0.44;93.51;98055.80;107852;1283;29633;-75
2021/12/18 03:07:57;;;;;;;9.60;4.90;;;;;;;0.41;93.62;98058.10;107734;1283;36299;-76
2021/12/18 03:19:44;;;;;;;9.50;4.70;;;;;;;0.38;93.83;98081.31;107744;1281;58690;-76
2021/12/18 03:24:55;;;;;;;13.00;4.70;;;;;;;0.38;93.77;98090.93;107972;1284;28475;-75
2021/12/18 03:27:24;;;;;;;10.50;4.90;;;;;;;0.37;93.90;98088.23;107786;1283;35736;-75
2021/12/18 03:29:55;;;;;;;8.30;5.00;;;;;;;0.38;94.14;98094.98;107828;1283;39858;-75
2021/12/18 03:32:24;;;;;;;9.20;5.50;;;;;;;0.38;94.25;98097.04;107733;1283;39491;-76
2021/12/18 03:34:54;;;;;;;8.90;5.50;;;;;;;0.33;94.38;98104.36;107775;1281;42286;-75
2021/12/18 03:37:22;;;;;;;12.10;5.20;;;;;;;0.28;94.44;98107.23;106329;1283;1954986;-76
2021/12/18 03:39:51;;;;;;;10.10;5.70;;;;;;;0.25;94.42;98109.39;107739;1283;38868;-75
2021/12/18 03:42:19;;;;;;;10.80;5.60;;;;;;;0.25;94.70;98117.77;107781;1283;40589;-75
2021/12/18 03:44:48;;;;;;;11.70;5.50;;;;;;;0.26;94.76;98113.98;107783;1283;30684;-75
2021/12/18 03:47:17;;;;;;;9.90;5.20;;;;;;;0.29;94.98;98114.60;107793;1283;37498;-75
2021/12/18 03:49:45;;;;;;;7.90;4.90;;;;;;;0.29;94.50;98115.38;107825;1282;57399;-75
2021/12/18 03:52:14;;;;;;;11.20;5.60;;;;;;;0.30;94.72;98115.18;107892;1282;41246;-75
2021/12/18 03:54:42;;;;;;;8.90;5.20;;;;;;;0.31;94.81;98117.61;107882;1283;31583;-75
2021/12/18 03:57:11;;;;;;;11.60;6.40;;;;;;;0.33;94.93;98121.80;107770;1283;29988;-75
2021/12/18 03:59:40;;;;;;;12.30;6.30;;;;;;;0.32;94.89;98114.02;107764;1282;45342;-76
2021/12/18 04:02:08;;;;;;;10.00;5.90;;;;;;;0.30;94.92;98116.91;107770;1282;42905;-75
2021/12/18 04:04:37;;;;;;;9.60;5.60;;;;;;;0.32;95.08;98119.42;107800;1283;31114;-75
2021/12/18 04:07:07;;;;;;;11.60;6.00;;;;;;;0.33;95.10;98124.34;107789;1283;30717;-75
2021/12/18 04:09:35;;;;;;;10.40;5.90;;;;;;;0.34;95.10;98125.71;107752;1283;44402;-75
2021/12/18 04:12:05;;;;;;;9.60;4.70;;;;;;;0.34;95.11;98131.05;107730;1283;45934;-75
2021/12/18 04:14:33;;;;;;;7.80;4.00;;;;;;;0.35;95.00;98138.23;107831;1282;44482;-76
2021/12/18 04:17:03;;;;;;;9.00;4.00;;;;;;;0.36;94.91;98138.66;107785;1282;40990;-76
2021/12/18 04:19:32;;;;;;;9.70;4.90;;;;;;;0.36;94.78;98132.89;107779;1282;58490;-75
2021/12/18 04:22:01;;;;;;;8.90;4.50;;;;;;;0.35;94.76;98122.27;107716;1282;36774;-76
2021/12/18 04:24:29;;;;;;;9.00;4.80;;;;;;;0.32;94.90;98121.52;107798;1283;29021;-76
2021/12/18 04:27:00;;;;;;;10.20;4.50;;;;;;;0.33;94.62;98118.87;107775;1283;30589;-75
2021/12/18 04:29:29;;;;;;;9.40;4.50;;;;;;;0.34;94.60;98119.77;107737;1283;61689;-76
2021/12/18 04:31:58;;;;;;;11.00;5.00;;;;;;;0.35;94.71;98119.55;107845;1282;38661;-75
2021/12/18 04:34:26;;;;;;;7.70;4.90;;;;;;;0.36;94.63;98117.20;107800;1282;33645;-76
2021/12/18 04:36:55;;;;;;;11.10;5.00;;;;;;;0.38;94.53;98107.46;107758;1283;56239;-75
2021/12/18 04:39:24;;;;;;;10.70;5.60;;;;;;;0.37;94.60;98095.54;107744;1283;63614;-75
2021/12/18 04:41:57;;;;;;;10.10;5.60;;;;;;;0.37;94.36;98099.27;107655;1283;53414;-76
2021/12/18 04:44:26;;;;;;;10.30;4.80;;;;;;;0.36;94.45;98112.95;107765;1283;43057;-75
2021/12/18 04:46:54;;;;;;;11.50;6.30;;;;;;;0.33;94.45;98109.61;107743;1283;46545;-75
2021/12/18 04:49:22;;;;;;;9.60;3.90;;;;;;;0.30;94.49;98108.73;107781;1283;70879;-76
2021/12/18 04:51:51;;;;;;;10.00;5.40;;;;;;;0.31;94.43;98104.61;107689;1282;64717;-76
2021/12/18 04:54:19;;;;;;;7.60;4.40;;;;;;;0.29;94.50;98109.68;107738;1283;61799;-75
2021/12/18 04:56:48;;;;;;;8.70;4.90;;;;;;;0.30;94.29;98118.27;107917;1283;30523;-75
2021/12/18 04:59:17;;;;;;;24.10;10.00;;;;;;;0.31;94.34;98119.02;107799;1282;57629;-75
2021/12/18 05:01:45;;;;;;;15.30;7.00;;;;;;;0.33;94.09;98120.04;107802;1283;69737;-75
2021/12/18 05:04:14;;;;;;;9.30;5.40;;;;;;;0.33;94.04;98128.35;107908;1283;37786;-75
2021/12/18 05:06:46;;;;;;;7.20;4.30;;;;;;;0.33;94.02;98121.61;107778;1284;45306;-75
2021/12/18 05:09:16;;;;;;;9.20;4.70;;;;;;;0.35;94.07;98124.77;107959;1283;37310;-75
2021/12/18 05:11:47;;;;;;;9.70;4.80;;;;;;;0.36;94.14;98123.57;107849;1283;30310;-75
2021/12/18 05:14:16;;;;;;;8.70;4.60;;;;;;;0.36;93.83;98126.70;107836;1284;35463;-75
2021/12/18 05:16:45;;;;;;;13.70;6.20;;;;;;;0.37;93.81;98127.89;107879;1283;31431;-75
2021/12/18 05:19:14;;;;;;;12.20;5.30;;;;;;;0.38;93.78;98125.86;107947;1282;37414;-75
2021/12/18 05:21:43;;;;;;;10.80;4.70;;;;;;;0.37;93.75;98128.48;107835;1282;35191;-76
2021/12/18 05:24:11;;;;;;;14.50;5.10;;;;;;;0.35;93.52;98126.73;107765;1284;57401;-75
2021/12/18 05:26:40;;;;;;;7.70;3.40;;;;;;;0.32;93.41;98134.20;107883;1283;39434;-75
2021/12/18 05:29:08;;;;;;;9.70;3.80;;;;;;;0.31;93.24;98135.95;107749;1282;36489;-75
2021/12/18 05:31:37;;;;;;;8.40;4.30;;;;;;;0.29;93.19;98136.60;107910;1283;38200;-75
2021/12/18 05:34:05;;;;;;;10.90;4.40;;;;;;;0.30;93.11;98142.27;107740;1283;40479;-75
2021/12/18 05:36:39;;;;;;;9.20;5.00;;;;;;;0.32;92.98;98138.28;107775;1281;34078;-75
2021/12/18 05:39:10;;;;;;;8.60;4.70;;;;;;;0.32;92.93;98141.38;107710;1282;40762;-75
2021/12/18 05:41:39;;;;;;;8.50;4.60;;;;;;;0.33;93.12;98135.20;107748;1283;38284;-75
2021/12/18 05:44:08;;;;;;;8.10;4.80;;;;;;;0.33;92.96;98127.55;107864;1283;34684;-75
2021/12/18 05:46:37;;;;;;;7.50;5.00;;;;;;;0.33;93.26;98131.29;107754;1284;38017;-75
2021/12/18 05:49:05;;;;;;;7.70;4.70;;;;;;;0.32;93.41;98127.41;107928;1283;30583;-75
2021/12/18 05:51:34;;;;;;;7.10;4.30;;;;;;;0.33;93.16;98125.58;107749;1283;39293;-75
2021/12/18 05:54:03;;;;;;;9.50;5.60;;;;;;;0.33;92.98;98131.52;107739;1284;36786;-76
2021/12/18 05:56:33;;;;;;;8.90;4.80;;;;;;;0.32;92.83;98132.99;107782;1283;37891;-75
2021/12/18 05:59:03;;;;;;;8.50;4.90;;;;;;;0.33;92.92;98137.13;107734;1283;36735;-75
2021/12/18 06:01:32;;;;;;;9.10;4.90;;;;;;;0.33;92.87;98136.21;107895;1283;41202;-75
2021/12/18 06:04:01;;;;;;;9.50;5.40;;;;;;;0.33;92.80;98136.58;107863;1282;47066;-76
2021/12/18 06:06:30;;;;;;;7.70;4.50;;;;;;;0.32;92.70;98139.33;107779;1284;31169;-75
2021/12/18 06:08:59;;;;;;;8.40;4.60;;;;;;;0.31;92.73;98136.59;107775;1283;37600;-75
2021/12/18 06:11:31;;;;;;;9.90;4.60;;;;;;;0.33;92.91;98140.39;107844;1281;46679;-75
2021/12/18 06:14:02;;;;;;;10.30;5.30;;;;;;;0.34;93.07;98136.83;107797;1283;30721;-75
2021/12/18 06:16:30;;;;;;;9.30;5.50;;;;;;;0.32;92.56;98134.44;107896;1284;35824;-76
2021/12/18 06:18:59;;;;;;;8.20;5.00;;;;;;;0.33;92.74;98138.10;107845;1284;42725;-75
2021/12/18 06:21:28;;;;;;;6.40;4.30;;;;;;;0.35;92.75;98137.20;107865;1284;35479;-76
2021/12/18 06:23:56;;;;;;;8.20;4.00;;;;;;;0.34;92.63;98141.44;107808;1282;53602;-75
2021/12/18 06:26:27;;;;;;;8.70;5.50;;;;;;;0.34;92.70;98141.80;107845;1284;33362;-75
2021/12/18 06:28:56;;;;;;;12.00;6.40;;;;;;;0.32;92.74;98145.27;107935;1282;28862;-75
2021/12/18 06:31:25;;;;;;;9.80;5.60;;;;;;;0.29;92.82;98149.56;107847;1283;44854;-75
2021/12/18 06:33:54;;;;;;;13.00;6.40;;;;;;;0.26;92.96;98157.11;107857;1283;46963;-75
2021/12/18 06:36:22;;;;;;;15.70;7.80;;;;;;;0.25;92.80;98159.38;107892;1284;29176;-76
2021/12/18 06:38:51;;;;;;;9.90;5.60;;;;;;;0.26;93.06;98152.65;107799;1283;51500;-75
2021/12/18 06:41:20;;;;;;;12.40;5.50;;;;;;;0.27;92.89;98151.63;107842;1282;48507;-75
2021/12/18 06:43:49;;;;;;;9.00;4.80;;;;;;;0.30;92.95;98155.12;107850;1284;39101;-76
2021/12/18 06:46:17;;;;;;;7.30;4.70;;;;;;;0.34;92.83;98147.10;107944;1283;39888;-75
2021/12/18 06:48:46;;;;;;;11.10;5.70;;;;;;;0.34;92.83;98147.95;107981;1282;41097;-75
2021/12/18 06:51:16;;;;;;;8.30;4.80;;;;;;;0.33;92.89;98143.68;107952;1284;36382;-75
2021/12/18 06:53:45;;;;;;;9.90;6.40;;;;;;;0.31;92.72;98139.59;107942;1282;34646;-75
2021/12/18 06:56:14;;;;;;;13.80;6.10;;;;;;;0.27;93.02;98144.20;107904;1283;38575;-75
2021/12/18 06:58:42;;;;;;;11.20;6.10;;;;;;;0.25;92.85;98148.95;107804;1283;38904;-75
2021/12/18 07:01:11;;;;;;;8.50;5.20;;;;;;;0.25;92.80;98145.77;107970;1283;56522;-75
2021/12/18 07:03:39;;;;;;;10.10;5.50;;;;;;;0.26;92.91;98143.23;107808;1282;38005;-75
2021/12/18 07:06:08;;;;;;;10.40;5.90;;;;;;;0.26;92.97;98141.14;107688;1284;51740;-76
2021/12/18 07:08:37;;;;;;;11.60;5.60;;;;;;;0.26;92.80;98144.83;107745;1283;44171;-75
2021/12/18 07:11:05;;;;;;;10.40;6.10;;;;;;;0.24;93.10;98146.89;107720;1284;47008;-75
2021/12/18 07:13:34;;;;;;;12.50;6.00;;;;;;;0.26;92.87;98145.48;107829;1284;39741;-75
2021/12/18 07:16:03;;;;;;;9.80;6.20;;;;;;;0.30;92.92;98141.95;107700;1284;41663;-75
2021/12/18 07:18:31;;;;;;;13.20;5.90;;;;;;;0.32;92.64;98143.30;107792;1283;28770;-75
2021/12/18 07:21:00;;;;;;;11.00;6.50;;;;;;;0.32;92.49;98137.01;107752;1282;65448;-75
2021/12/18 07:23:28;;;;;;;15.50;7.10;;;;;;;0.30;92.40;98132.23;107772;1283;33016;-75
2021/12/18 07:25:57;;;;;;;10.90;5.80;;;;;;;0.31;92.69;98127.23;107724;1284;54208;-75
2021/12/18 07:28:28;;;;;;;12.20;5.30;;;;;;;0.33;92.72;98125.91;107734;1283;40286;-75
2021/12/18 07:30:57;;;;;;;10.90;5.60;;;;;;;0.33;92.31;98122.26;107733;1283;38297;-75
2021/12/18 07:33:28;;;;;;;9.80;6.00;;;;;;;0.34;92.17;98114.00;107688;1282;216341;-75
2021/12/18 07:35:57;;;;;;;10.40;6.10;;;;;;;0.38;92.62;98115.23;107886;1282;38805;-75
2021/12/18 07:38:26;;;;;;;9.00;5.30;;;;;;;0.41;92.34;98109.48;107823;1284;39916;-75
2021/12/18 07:40:55;;;;;;;12.70;4.90;;;;;;;0.39;92.05;98109.21;107721;1283;44332;-75
2021/12/18 07:43:24;;;;;;;9.80;5.30;;;;;;;0.36;91.89;98111.21;107733;1284;37648;-75
2021/12/18 07:45:53;;;;;;;10.80;5.70;;;;;;;0.34;91.51;98114.20;107788;1284;27531;-75
2021/12/18 07:48:21;;;;;;;14.10;6.40;;;;;;;0.33;91.70;98123.04;107773;1282;50066;-75
2021/12/18 07:50:50;;;;;;;11.90;5.60;;;;;;;0.33;91.70;98126.80;107719;1284;55540;-75
2021/12/18 07:53:18;;;;;;;9.40;5.70;;;;;;;0.34;91.93;98129.80;107726;1283;34547;-76
2021/12/18 07:55:47;;;;;;;11.70;6.40;;;;;;;0.35;91.65;98135.77;107820;1284;36452;-75
2021/12/18 07:58:16;;;;;;;11.90;6.40;;;;;;;0.32;91.62;98135.35;107800;1283;41128;-75
2021/12/18 08:00:45;;;;;;;9.90;5.30;;;;;;;0.29;91.66;98142.23;107794;1284;38196;-75
2021/12/18 08:03:14;;;;;;;16.70;5.70;;;;;;;0.27;91.41;98141.85;107949;1282;40595;-75
2021/12/18 08:05:43;;;;;;;14.30;6.20;;;;;;;0.25;91.62;98151.13;107718;1284;42711;-76
2021/12/18 08:08:12;;;;;;;11.50;6.10;;;;;;;0.25;91.64;98151.88;107751;1284;35034;-75
2021/12/18 08:10:41;;;;;;;13.20;6.80;;;;;;;0.26;91.69;98152.49;107725;1283;35857;-75
2021/12/18 08:13:09;;;;;;;12.40;6.90;;;;;;;0.26;91.70;98139.45;107872;1284;34316;-75
2021/12/18 08:15:38;;;;;;;12.60;6.50;;;;;;;0.27;91.66;98132.37;107776;1284;35347;-75
2021/12/18 08:18:07;;;;;;;12.40;7.10;;;;;;;0.29;91.70;98130.97;107676;1284;40046;-75
2021/12/18 08:20:36;;;;;;;12.40;6.20;;;;;;;0.31;91.65;98128.77;107858;1283;44686;-75
2021/12/18 08:23:06;;;;;;;11.50;6.40;;;;;;;0.33;91.20;98133.44;107761;1283;32862;-75
2021/12/18 08:25:35;;;;;;;13.20;6.20;;;;;;;0.36;91.33;98131.61;107695;1283;41440;-75
2021/12/18 08:28:08;;;;;;;13.00;6.40;;;;;;;0.40;91.23;98132.23;107823;1284;49296;-75
2021/12/18 08:30:39;;;;;;;9.80;5.30;;;;;;;0.42;90.99;98135.32;107785;1283;33673;-75
2021/12/18 08:33:06;;;;;;;;;;;;;;;0.45;90.90;98132.01;107735;1284;50362;-75
2021/12/18 08:35:36;;;;;;;11.50;5.90;;;;;;;0.43;90.40;98137.34;107744;1283;37738;-75
2021/12/18 08:38:06;;;;;;;7.10;5.00;;;;;;;0.41;90.39;98131.39;107729;1283;39818;-74
2021/12/18 08:40:36;;;;;;;12.30;6.10;;;;;;;0.40;90.20;98132.71;107733;1283;40750;-75
2021/12/18 08:43:07;;;;;;;10.10;6.60;;;;;;;0.39;90.05;98137.63;107750;1283;33847;-75
2021/12/18 08:45:36;;;;;;;7.80;5.30;;;;;;;0.40;89.84;98144.27;107701;1284;45024;-75
2021/12/18 08:48:05;;;;;;;8.30;5.20;;;;;;;0.43;89.98;98150.28;107850;1284;32877;-75
2021/12/18 08:50:34;;;;;;;9.00;5.50;;;;;;;0.45;90.05;98151.02;107740;1283;42403;-75
2021/12/18 08:53:03;;;;;;;11.90;6.30;;;;;;;0.47;89.47;98154.78;107790;1284;30022;-75
2021/12/18 08:55:32;;;;;;;13.50;6.80;;;;;;;0.49;89.52;98154.70;107714;1283;38444;-75
2021/12/18 08:58:01;;;;;;;8.70;5.60;;;;;;;0.50;89.21;98155.40;107937;1283;47182;-76
2021/12/18 09:00:32;;;;;;;9.50;5.20;;;;;;;0.52;89.21;98156.95;107794;1284;30994;-75
2021/12/18 09:03:00;;;;;;;;;;;;;;;0.50;89.20;98152.07;107804;1283;37393;-75
2021/12/18 09:05:30;;;;;;;12.10;7.20;;;;;;;0.51;89.22;98142.48;107725;1284;36060;-75
2021/12/18 09:07:59;;;;;;;11.90;6.30;;;;;;;0.46;89.27;98136.27;107831;1281;41845;-75
2021/12/18 09:10:28;;;;;;;13.90;6.50;;;;;;;0.38;89.29;98139.26;107710;1283;55830;-75
2021/12/18 09:12:57;;;;;;;12.00;6.30;;;;;;;0.32;89.27;98149.55;107850;1283;35361;-75
2021/12/18 09:15:28;;;;;;;12.40;7.20;;;;;;;0.28;89.52;98147.88;107731;1283;37375;-75
2021/12/18 09:17:57;;;;;;;13.90;7.80;;;;;;;0.27;89.55;98146.61;107777;1283;46857;-75
2021/12/18 09:20:26;;;;;;;13.60;7.20;;;;;;;0.27;89.84;98142.04;107804;1284;38716;-75
2021/12/18 09:22:55;;;;;;;12.40;6.50;;;;;;;0.27;89.78;98137.91;107697;1284;40082;-75
2021/12/18 09:25:24;;;;;;;13.30;5.60;;;;;;;0.28;89.84;98127.05;107721;1284;36879;-75
2021/12/18 09:27:55;;;;;;;11.70;5.90;;;;;;;0.28;89.63;98119.16;107759;1282;38966;-75
2021/12/18 09:30:24;;;;;;;13.10;6.60;;;;;;;0.27;89.45;98105.70;107694;1283;37230;-75
2021/12/18 09:32:53;;;;;;;9.80;5.40;;;;;;;0.26;89.57;98098.85;107757;1283;34551;-75
2021/12/18 09:35:22;;;;;;;10.80;5.00;;;;;;;0.27;89.68;98095.00;107756;1284;43749;-75
2021/12/18 09:37:50;;;;;;;9.20;4.00;;;;;;;0.26;89.38;98097.85;107724;1284;46655;-75
2021/12/18 09:40:19;;;;;;;9.20;5.40;;;;;;;0.27;89.38;98085.26;107905;1284;29397;-75
2021/12/18 09:42:48;;;;;;;9.80;5.50;;;;;;;0.28;89.27;98077.95;107939;1284;32088;-75
2021/12/18 09:45:17;;;;;;;10.40;4.80;;;;;;;0.33;89.01;98075.55;107873;1284;38812;-75
2021/12/18 09:47:47;;;;;;;9.40;5.70;;;;;;;0.36;88.46;98068.39;107953;1283;31286;-75
2021/12/18 09:50:17;;;;;;;10.90;5.10;;;;;;;0.40;88.54;98076.48;107812;1284;46699;-75
2021/12/18 09:52:46;;;;;;;7.80;3.10;;;;;;;0.42;87.83;98073.93;107826;1283;52582;-75
2021/12/18 09:55:17;;;;;;;4.30;2.90;;;;;;;0.44;87.67;98073.55;107793;1284;36633;-75
2021/12/18 09:57:47;;;;;;;4.70;3.10;;;;;;;0.46;87.21;98075.71;107932;1282;31977;-75
2021/12/18 10:00:22;;;;;;;9.10;4.10;;;;;;;0.49;86.85;98073.65;107964;1283;32696;-75
2021/12/18 10:02:51;;;;;;;10.40;4.40;;;;;;;0.52;87.16;98066.99;107915;1283;39290;-75
2021/12/18 10:05:24;;;;;;;9.80;5.20;;;;;;;0.57;87.18;98062.78;107755;1283;44418;-75
2021/12/18 10:08:16;;;;;;;9.20;4.00;;;;;;;0.60;87.18;98068.20;107911;1282;42822;-75
2021/12/18 10:11:03;;;;;;;8.00;4.10;;;;;;;0.63;87.02;98066.31;107864;1283;30131;-75
2021/12/18 10:13:50;;;;;;;7.20;4.50;;;;;;;0.62;86.73;98055.17;107837;1284;34223;-75
2021/12/18 10:16:19;;;;;;;9.70;5.20;;;;;;;0.62;86.83;98048.96;107784;1281;42685;-75
2021/12/18 10:18:49;;;;;;;14.00;4.20;;;;;;;0.65;86.65;98038.59;107896;1284;34614;-75
2021/12/18 10:21:20;;;;;;;7.10;3.50;;;;;;;0.67;86.31;98043.52;107857;1284;34748;-75
2021/12/18 10:23:51;;;;;;;9.70;4.80;;;;;;;0.72;85.61;98041.59;107745;1284;37422;-75
2021/12/18 10:26:38;;;;;;;13.70;7.00;;;;;;;0.83;85.38;98039.39;107740;1284;68806;-76
2021/12/18 10:29:22;;;;;;;9.80;4.70;;;;;;;0.94;84.93;98035.84;107881;1284;31477;-75
2021/12/18 10:31:51;;;;;;;9.50;4.80;;;;;;;1.14;85.31;98022.95;107724;1284;37065;-75
2021/12/18 10:34:22;;;;;;;11.00;5.70;;;;;;;1.34;85.19;98012.27;107791;1283;32031;-75
2021/12/18 10:37:24;;;;;;;7.60;4.00;;;;;;;1.63;85.54;98012.02;107830;1283;32697;-75
2021/12/18 10:40:06;;;;;;;7.90;4.40;;;;;;;1.88;84.48;98006.45;107443;1288;41955;-75
2021/12/18 10:42:39;;;;;;;9.10;4.90;;;;;;;2.17;83.54;98005.34;107657;1288;32702;-75
2021/12/18 10:45:17;;;;;;;13.00;6.10;;;;;;;1.95;81.65;98011.83;107720;1284;35908;-75
2021/12/18 10:47:57;;;;;;;15.60;6.10;;;;;;;1.73;82.46;98001.46;107835;1284;35144;-75
2021/12/18 10:50:33;;;;;;;15.70;7.20;;;;;;;1.63;82.60;98011.29;107775;1284;37051;-75
2021/12/18 10:53:06;;;;;;;26.50;11.00;;;;;;;1.63;82.62;98011.13;107877;1282;38507;-74
2021/12/18 10:55:43;;;;;;;14.70;8.50;;;;;;;1.54;82.41;98010.84;107754;1284;29290;-75
2021/12/18 10:58:13;;;;;;;10.50;5.80;;;;;;;1.47;82.48;98001.09;107788;1284;43104;-75
2021/12/18 11:01:03;;;;;;;12.30;5.90;;;;;;;1.38;82.38;98002.02;107868;1283;44754;-75
2021/12/18 11:03:34;;;;;;;12.40;7.50;;;;;;;1.34;82.76;97996.65;107757;1284;48834;-75
2021/12/18 11:06:12;;;;;;;10.90;5.80;;;;;;;1.32;82.77;97993.86;107751;1283;30608;-75
2021/12/18 11:08:58;;;;;;;17.70;8.30;;;;;;;1.36;82.96;97991.23;107798;1284;34430;-75
2021/12/18 11:14:22;;;;;;;9.90;5.40;;;;;;;1.44;82.50;97980.52;107742;1283;39970;-75
2021/12/18 11:16:53;;;;;;;8.40;5.10;;;;;;;1.34;82.38;97978.56;107833;1283;35902;-75
2021/12/18 11:19:21;;;;;;;;;;;;;;;1.33;82.60;97977.80;107672;1283;48590;-75
2021/12/18 11:21:52;;;;;;;13.90;6.90;;;;;;;1.39;83.02;97975.84;107752;1283;37103;-75
2021/12/18 11:24:29;;;;;;;12.20;5.30;;;;;;;1.40;82.97;97977.13;107763;1284;35046;-75
2021/12/18 11:27:01;;;;;;;8.90;5.50;;;;;;;1.32;82.59;97981.25;107869;1284;37184;-75
2021/12/18 11:29:39;;;;;;;10.10;4.40;;;;;;;1.22;82.73;97980.73;107910;1283;33543;-75
2021/12/18 11:32:11;;;;;;;12.30;7.10;;;;;;;1.17;82.79;97980.97;107913;1283;37385;-75
2021/12/18 11:34:41;;;;;;;12.60;7.20;;;;;;;1.10;82.85;97973.60;107745;1283;34682;-75
2021/12/18 11:37:12;;;;;;;12.40;5.20;;;;;;;1.05;82.98;97967.93;107736;1283;65659;-75
2021/12/18 11:39:43;;;;;;;13.80;6.60;;;;;;;1.03;82.87;97967.31;107875;1282;35912;-75
2021/12/18 11:42:13;;;;;;;15.50;6.50;;;;;;;1.06;83.03;97967.17;107905;1282;31265;-74
2021/12/18 11:44:44;;;;;;;9.40;5.10;;;;;;;1.10;83.01;97964.07;107746;1284;40001;-75
2021/12/18 11:47:31;;;;;;;12.10;6.90;;;;;;;1.17;82.86;97957.70;107871;1282;37482;-75
2021/12/18 11:50:03;;;;;;;11.40;6.00;;;;;;;1.22;82.88;97959.70;107852;1282;36091;-75
2021/12/18 11:52:57;;;;;;;11.40;6.20;;;;;;;1.21;82.89;97951.94;107851;1284;42169;-75
2021/12/18 11:55:28;;;;;;;8.70;5.70;;;;;;;1.17;82.63;97956.81;107882;1284;36131;-75
2021/12/18 11:57:59;;;;;;;14.50;6.90;;;;;;;1.11;82.54;97952.84;107905;1284;33976;-75
2021/12/18 12:00:55;;;;;;;14.80;7.50;;;;;;;1.05;82.87;97956.36;107808;1284;35181;-75
2021/12/18 12:03:36;;;;;;;12.10;7.00;;;;;;;1.01;83.31;97952.63;107749;1284;38589;-75
2021/12/18 12:06:23;;;;;;;11.90;7.10;;;;;;;0.95;83.50;97948.28;107711;1283;30540;-75
2021/12/18 12:09:26;;;;;;;14.80;8.60;;;;;;;0.92;83.81;97946.58;107736;1283;37604;-75
2021/12/18 12:11:58;;;;;;;15.00;9.00;;;;;;;0.98;84.25;97942.21;107730;1284;37133;-75
2021/12/18 12:14:28;;;;;;;14.30;6.20;;;;;;;1.09;84.43;97935.34;107765;1283;30143;-75
2021/12/18 12:17:17;;;;;;;11.30;6.50;;;;;;;1.09;83.92;97925.38;107833;1284;40744;-75
2021/12/18 12:19:54;;;;;;;11.70;6.30;;;;;;;1.04;83.52;97925.09;107979;1284;30870;-75